sensor_id;sensor_type;location;lat;lon;timestamp;pressure;altitude;pressure_sealevel;temperature;humidity
35023;BME280;21214;44.912;8.204;2023-11-19T00:00:10;100266.84;;;4.05;100.00
35023;BME280;21214;44.912;8.204;2023-11-19T00:02:39;100271.16;;;4.06;100.00
35023;BME280;21214;44.912;8.204;2023-11-19T00:05:05;100272.16;;;4.03;100.00
35023;BME280;21214;44.912;8.204;2023-11-19T00:07:37;100274.50;;;4.08;100.00
35023;BME280;21214;44.912;8.204;2023-11-19T00:10:13;100275.41;;;4.07;100.00
35023;BME280;21214;44.912;8.204;2023-11-19T00:12:42;100269.47;;;4.05;100.00
35023;BME280;21214;44.912;8.204;2023-11-19T00:15:07;100257.66;;;3.98;100.00
35023;BME280;21214;44.912;8.204;2023-11-19T00:17:42;100269.75;;;3.83;100.00
35023;BME280;21214;44.912;8.204;2023-11-19T00:20:11;100264.72;;;3.96;100.00
35023;BME280;21214;44.912;8.204;2023-11-19T00:22:36;100253.88;;;4.03;100.00
35023;BME280;21214;44.912;8.204;2023-11-19T00:25:02;100259.16;;;4.02;100.00
35023;BME280;21214;44.912;8.204;2023-11-19T00:27:28;100250.75;;;3.97;100.00
35023;BME280;21214;44.912;8.204;2023-11-19T00:29:54;100260.78;;;4.04;100.00
35023;BME280;21214;44.912;8.204;2023-11-19T00:32:19;100272.41;;;3.99;100.00
35023;BME280;21214;44.912;8.204;2023-11-19T00:34:45;100259.34;;;3.99;100.00
35023;BME280;21214;44.912;8.204;2023-11-19T00:37:10;100260.78;;;3.89;100.00
35023;BME280;21214;44.912;8.204;2023-11-19T00:39:36;100264.06;;;3.77;100.00
35023;BME280;21214;44.912;8.204;2023-11-19T00:42:01;100274.78;;;3.55;100.00
35023;BME280;21214;44.912;8.204;2023-11-19T00:44:27;100270.16;;;3.60;100.00
35023;BME280;21214;44.912;8.204;2023-11-19T00:46:52;100261.13;;;3.50;100.00
35023;BME280;21214;44.912;8.204;2023-11-19T00:49:17;100268.19;;;3.48;100.00
35023;BME280;21214;44.912;8.204;2023-11-19T00:51:43;100268.19;;;3.48;100.00
35023;BME280;21214;44.912;8.204;2023-11-19T00:54:10;100271.38;;;3.37;100.00
35023;BME280;21214;44.912;8.204;2023-11-19T00:56:36;100261.88;;;3.19;100.00
35023;BME280;21214;44.912;8.204;2023-11-19T00:59:02;100254.84;;;3.21;100.00
35023;BME280;21214;44.912;8.204;2023-11-19T01:01:29;100258.03;;;3.26;100.00
35023;BME280;21214;44.912;8.204;2023-11-19T01:03:55;100254.19;;;3.33;100.00
35023;BME280;21214;44.912;8.204;2023-11-19T01:06:29;100255.72;;;3.37;100.00
35023;BME280;21214;44.912;8.204;2023-11-19T01:08:54;100261.63;;;3.41;100.00
35023;BME280;21214;44.912;8.204;2023-11-19T01:11:25;100252.13;;;3.40;100.00
35023;BME280;21214;44.912;8.204;2023-11-19T01:13:50;100254.50;;;3.27;100.00
35023;BME280;21214;44.912;8.204;2023-11-19T01:16:16;100255.16;;;3.15;100.00
35023;BME280;21214;44.912;8.204;2023-11-19T01:18:42;100245.03;;;3.09;100.00
35023;BME280;21214;44.912;8.204;2023-11-19T01:21:08;100241.19;;;3.16;100.00
35023;BME280;21214;44.912;8.204;2023-11-19T01:23:34;100239.97;;;3.23;100.00
35023;BME280;21214;44.912;8.204;2023-11-19T01:25:59;100240.56;;;3.28;100.00
35023;BME280;21214;44.912;8.204;2023-11-19T01:28:24;100238.53;;;3.33;100.00
35023;BME280;21214;44.912;8.204;2023-11-19T01:30:50;100244.59;;;3.34;100.00
35023;BME280;21214;44.912;8.204;2023-11-19T01:33:16;100238.38;;;3.36;100.00
35023;BME280;21214;44.912;8.204;2023-11-19T01:35:41;100235.16;;;3.31;100.00
35023;BME280;21214;44.912;8.204;2023-11-19T01:38:06;100233.81;;;3.24;100.00
35023;BME280;21214;44.912;8.204;2023-11-19T01:40:34;100238.09;;;3.25;100.00
35023;BME280;21214;44.912;8.204;2023-11-19T01:42:59;100236.38;;;3.41;100.00
35023;BME280;21214;44.912;8.204;2023-11-19T01:45:28;100229.47;;;3.40;100.00
35023;BME280;21214;44.912;8.204;2023-11-19T01:47:54;100230.53;;;3.53;100.00
35023;BME280;21214;44.912;8.204;2023-11-19T01:50:21;100234.56;;;3.59;100.00
35023;BME280;21214;44.912;8.204;2023-11-19T01:52:46;100233.63;;;3.60;100.00
35023;BME280;21214;44.912;8.204;2023-11-19T01:55:12;100236.31;;;3.58;100.00
35023;BME280;21214;44.912;8.204;2023-11-19T01:57:38;100230.34;;;3.56;100.00
35023;BME280;21214;44.912;8.204;2023-11-19T02:00:06;100231.59;;;3.49;100.00
35023;BME280;21214;44.912;8.204;2023-11-19T02:02:39;100230.34;;;3.56;100.00
35023;BME280;21214;44.912;8.204;2023-11-19T02:05:05;100235.75;;;3.53;100.00
35023;BME280;21214;44.912;8.204;2023-11-19T02:07:31;100215.09;;;3.49;100.00
35023;BME280;21214;44.912;8.204;2023-11-19T02:09:56;100228.47;;;3.43;100.00
35023;BME280;21214;44.912;8.204;2023-11-19T02:12:24;100212.59;;;3.30;100.00
35023;BME280;21214;44.912;8.204;2023-11-19T02:14:50;100208.16;;;2.99;100.00
35023;BME280;21214;44.912;8.204;2023-11-19T02:17:30;100203.63;;;3.03;100.00
35023;BME280;21214;44.912;8.204;2023-11-19T02:20:05;100208.38;;;3.12;100.00
35023;BME280;21214;44.912;8.204;2023-11-19T02:22:40;100204.38;;;3.22;100.00
35023;BME280;21214;44.912;8.204;2023-11-19T02:25:06;100194.84;;;3.21;100.00
35023;BME280;21214;44.912;8.204;2023-11-19T02:27:43;100194.88;;;3.04;100.00
35023;BME280;21214;44.912;8.204;2023-11-19T02:30:10;100189.34;;;3.10;100.00
35023;BME280;21214;44.912;8.204;2023-11-19T02:32:36;100180.75;;;3.08;100.00
35023;BME280;21214;44.912;8.204;2023-11-19T02:35:04;100187.00;;;3.05;100.00
35023;BME280;21214;44.912;8.204;2023-11-19T02:37:29;100171.88;;;2.95;100.00
35023;BME280;21214;44.912;8.204;2023-11-19T02:39:55;100187.31;;;2.99;100.00
35023;BME280;21214;44.912;8.204;2023-11-19T02:42:20;100189.34;;;3.10;100.00
35023;BME280;21214;44.912;8.204;2023-11-19T02:44:46;100188.25;;;3.14;100.00
35023;BME280;21214;44.912;8.204;2023-11-19T02:47:11;100187.53;;;3.12;100.00
35023;BME280;21214;44.912;8.204;2023-11-19T02:49:37;100179.59;;;3.13;100.00
35023;BME280;21214;44.912;8.204;2023-11-19T02:52:02;100177.41;;;3.06;100.00
35023;BME280;21214;44.912;8.204;2023-11-19T02:54:31;100176.03;;;2.99;100.00
35023;BME280;21214;44.912;8.204;2023-11-19T02:57:00;100175.44;;;2.94;100.00
35023;BME280;21214;44.912;8.204;2023-11-19T02:59:26;100175.97;;;2.83;100.00
35023;BME280;21214;44.912;8.204;2023-11-19T03:01:53;100169.09;;;2.82;100.00
35023;BME280;21214;44.912;8.204;2023-11-19T03:04:18;100157.84;;;2.81;100.00
35023;BME280;21214;44.912;8.204;2023-11-19T03:06:45;100156.81;;;2.84;100.00
35023;BME280;21214;44.912;8.204;2023-11-19T03:09:11;100154.13;;;2.85;100.00
35023;BME280;21214;44.912;8.204;2023-11-19T03:11:36;100147.09;;;2.87;100.00
35023;BME280;21214;44.912;8.204;2023-11-19T03:14:02;100137.41;;;2.89;100.00
35023;BME280;21214;44.912;8.204;2023-11-19T03:16:30;100140.00;;;2.89;100.00
35023;BME280;21214;44.912;8.204;2023-11-19T03:18:56;100148.78;;;2.88;100.00
35023;BME280;21214;44.912;8.204;2023-11-19T03:21:29;100157.44;;;2.72;100.00
35023;BME280;21214;44.912;8.204;2023-11-19T03:23:54;100149.88;;;2.50;100.00
35023;BME280;21214;44.912;8.204;2023-11-19T03:26:21;100147.91;;;2.38;100.00
35023;BME280;21214;44.912;8.204;2023-11-19T03:28:47;100161.38;;;2.29;100.00
35023;BME280;21214;44.912;8.204;2023-11-19T03:31:12;100149.66;;;2.20;100.00
35023;BME280;21214;44.912;8.204;2023-11-19T03:33:39;100144.13;;;2.26;100.00
35023;BME280;21214;44.912;8.204;2023-11-19T03:36:04;100153.41;;;2.32;100.00
35023;BME280;21214;44.912;8.204;2023-11-19T03:38:31;100156.78;;;2.34;100.00
35023;BME280;21214;44.912;8.204;2023-11-19T03:40:57;100151.72;;;2.31;100.00
35023;BME280;21214;44.912;8.204;2023-11-19T03:43:23;100151.41;;;2.37;100.00
35023;BME280;21214;44.912;8.204;2023-11-19T03:45:48;100148.81;;;2.37;100.00
35023;BME280;21214;44.912;8.204;2023-11-19T03:48:13;100153.28;;;2.35;100.00
35023;BME280;21214;44.912;8.204;2023-11-19T03:50:41;100141.31;;;2.31;100.00
35023;BME280;21214;44.912;8.204;2023-11-19T03:53:07;100138.69;;;2.31;100.00
35023;BME280;21214;44.912;8.204;2023-11-19T03:55:32;100140.44;;;2.30;100.00
35023;BME280;21214;44.912;8.204;2023-11-19T03:57:58;100147.28;;;2.33;100.00
35023;BME280;21214;44.912;8.204;2023-11-19T04:00:23;100134.25;;;2.33;100.00
35023;BME280;21214;44.912;8.204;2023-11-19T04:02:49;100146.38;;;2.34;100.00
35023;BME280;21214;44.912;8.204;2023-11-19T04:05:14;100136.78;;;2.34;100.00
35023;BME280;21214;44.912;8.204;2023-11-19T04:07:40;100141.00;;;2.37;100.00
35023;BME280;21214;44.912;8.204;2023-11-19T04:10:05;100150.25;;;2.42;100.00
35023;BME280;21214;44.912;8.204;2023-11-19T04:12:31;100144.06;;;2.45;100.00
35023;BME280;21214;44.912;8.204;2023-11-19T04:14:56;100140.38;;;2.49;100.00
35023;BME280;21214;44.912;8.204;2023-11-19T04:17:22;100152.34;;;2.53;100.00
35023;BME280;21214;44.912;8.204;2023-11-19T04:19:48;100150.66;;;2.52;100.00
35023;BME280;21214;44.912;8.204;2023-11-19T04:22:13;100145.16;;;2.24;100.00
35023;BME280;21214;44.912;8.204;2023-11-19T04:24:39;100141.91;;;2.36;100.00
35023;BME280;21214;44.912;8.204;2023-11-19T04:27:05;100142.69;;;2.38;100.00
35023;BME280;21214;44.912;8.204;2023-11-19T04:29:31;100139.84;;;2.42;100.00
35023;BME280;21214;44.912;8.204;2023-11-19T04:31:57;100138.69;;;2.48;100.00
35023;BME280;21214;44.912;8.204;2023-11-19T04:34:22;100140.53;;;2.46;100.00
35023;BME280;21214;44.912;8.204;2023-11-19T04:36:48;100136.84;;;2.50;100.00
35023;BME280;21214;44.912;8.204;2023-11-19T04:39:14;100129.81;;;2.52;100.00
35023;BME280;21214;44.912;8.204;2023-11-19T04:41:46;100126.59;;;2.47;100.00
35023;BME280;21214;44.912;8.204;2023-11-19T04:44:14;100120.69;;;2.43;100.00
35023;BME280;21214;44.912;8.204;2023-11-19T04:46:41;100113.44;;;2.33;100.00
35023;BME280;21214;44.912;8.204;2023-11-19T04:49:08;100107.31;;;2.17;100.00
35023;BME280;21214;44.912;8.204;2023-11-19T04:51:37;100098.13;;;2.10;100.00
35023;BME280;21214;44.912;8.204;2023-11-19T04:54:03;100110.97;;;2.13;100.00
35023;BME280;21214;44.912;8.204;2023-11-19T04:56:29;100104.41;;;2.23;100.00
35023;BME280;21214;44.912;8.204;2023-11-19T04:58:54;100096.28;;;2.29;100.00
35023;BME280;21214;44.912;8.204;2023-11-19T05:01:20;100100.72;;;2.10;100.00
35023;BME280;21214;44.912;8.204;2023-11-19T05:03:45;100096.59;;;1.88;100.00
35023;BME280;21214;44.912;8.204;2023-11-19T05:06:11;100093.44;;;1.82;100.00
35023;BME280;21214;44.912;8.204;2023-11-19T05:08:37;100083.94;;;1.81;100.00
35023;BME280;21214;44.912;8.204;2023-11-19T05:11:02;100086.91;;;1.73;100.00
35023;BME280;21214;44.912;8.204;2023-11-19T05:13:28;100089.25;;;1.60;100.00
35023;BME280;21214;44.912;8.204;2023-11-19T05:15:54;100083.97;;;1.62;100.00
35023;BME280;21214;44.912;8.204;2023-11-19T05:18:19;100085.41;;;1.50;100.00
35023;BME280;21214;44.912;8.204;2023-11-19T05:20:45;100079.38;;;1.50;100.00
35023;BME280;21214;44.912;8.204;2023-11-19T05:23:10;100084.56;;;1.50;100.00
35023;BME280;21214;44.912;8.204;2023-11-19T05:25:36;100078.00;;;1.60;100.00
35023;BME280;21214;44.912;8.204;2023-11-19T05:28:01;100081.88;;;1.70;100.00
35023;BME280;21214;44.912;8.204;2023-11-19T05:30:27;100080.50;;;1.80;100.00
35023;BME280;21214;44.912;8.204;2023-11-19T05:32:52;100076.75;;;1.86;100.00
35023;BME280;21214;44.912;8.204;2023-11-19T05:35:18;100080.81;;;1.91;100.00
35023;BME280;21214;44.912;8.204;2023-11-19T05:37:43;100080.50;;;1.97;100.00
35023;BME280;21214;44.912;8.204;2023-11-19T05:40:09;100081.13;;;2.02;100.00
35023;BME280;21214;44.912;8.204;2023-11-19T05:42:40;100081.28;;;1.82;100.00
35023;BME280;21214;44.912;8.204;2023-11-19T05:45:05;100075.13;;;1.83;100.00
35023;BME280;21214;44.912;8.204;2023-11-19T05:47:31;100075.91;;;1.85;100.00
35023;BME280;21214;44.912;8.204;2023-11-19T05:49:56;100074.75;;;1.91;100.00
35023;BME280;21214;44.912;8.204;2023-11-19T05:52:21;100071.16;;;1.76;100.00
35023;BME280;21214;44.912;8.204;2023-11-19T05:54:48;100084.16;;;1.76;100.00
35023;BME280;21214;44.912;8.204;2023-11-19T05:57:17;100078.56;;;1.84;100.00
35023;BME280;21214;44.912;8.204;2023-11-19T05:59:47;100080.13;;;1.88;100.00
35023;BME280;21214;44.912;8.204;2023-11-19T06:02:13;100069.63;;;1.89;100.00
35023;BME280;21214;44.912;8.204;2023-11-19T06:04:38;100069.06;;;1.83;100.00
35023;BME280;21214;44.912;8.204;2023-11-19T06:07:04;100083.09;;;1.80;100.00
35023;BME280;21214;44.912;8.204;2023-11-19T06:09:30;100074.38;;;1.81;100.00
35023;BME280;21214;44.912;8.204;2023-11-19T06:11:59;100073.81;;;1.75;100.00
35023;BME280;21214;44.912;8.204;2023-11-19T06:14:27;100087.19;;;1.67;100.00
35023;BME280;21214;44.912;8.204;2023-11-19T06:16:52;100091.69;;;1.82;100.00
35023;BME280;21214;44.912;8.204;2023-11-19T06:19:18;100087.66;;;1.58;100.00
35023;BME280;21214;44.912;8.204;2023-11-19T06:21:43;100094.69;;;1.56;100.00
35023;BME280;21214;44.912;8.204;2023-11-19T06:24:09;100088.09;;;1.66;100.00
35023;BME280;21214;44.912;8.204;2023-11-19T06:26:34;100099.13;;;1.71;100.00
35023;BME280;21214;44.912;8.204;2023-11-19T06:29:00;100089.56;;;1.72;100.00
35023;BME280;21214;44.912;8.204;2023-11-19T06:31:25;100103.59;;;1.69;100.00
35023;BME280;21214;44.912;8.204;2023-11-19T06:33:56;100100.38;;;1.64;100.00
35023;BME280;21214;44.912;8.204;2023-11-19T06:36:22;100096.41;;;1.74;100.00
35023;BME280;21214;44.912;8.204;2023-11-19T06:38:47;100081.41;;;1.79;100.00
35023;BME280;21214;44.912;8.204;2023-11-19T06:41:13;100108.34;;;1.78;100.00
35023;BME280;21214;44.912;8.204;2023-11-19T06:43:38;100106.66;;;1.77;100.00
35023;BME280;21214;44.912;8.204;2023-11-19T06:46:04;100103.91;;;1.80;100.00
35023;BME280;21214;44.912;8.204;2023-11-19T06:48:31;100108.34;;;1.78;100.00
35023;BME280;21214;44.912;8.204;2023-11-19T06:50:57;100103.06;;;1.80;100.00
35023;BME280;21214;44.912;8.204;2023-11-19T06:53:22;100109.13;;;1.80;100.00
35023;BME280;21214;44.912;8.204;2023-11-19T06:55:48;100103.75;;;1.83;100.00
35023;BME280;21214;44.912;8.204;2023-11-19T06:58:13;100096.53;;;1.71;100.00
35023;BME280;21214;44.912;8.204;2023-11-19T07:00:38;100103.09;;;1.61;100.00
35023;BME280;21214;44.912;8.204;2023-11-19T07:03:04;100100.81;;;1.72;100.00
35023;BME280;21214;44.912;8.204;2023-11-19T07:05:35;100106.03;;;1.72;100.00
35023;BME280;21214;44.912;8.204;2023-11-19T07:08:01;100099.00;;;1.74;100.00
35023;BME280;21214;44.912;8.204;2023-11-19T07:10:26;100081.16;;;1.67;100.00
35023;BME280;21214;44.912;8.204;2023-11-19T07:12:51;100090.16;;;1.59;100.00
35023;BME280;21214;44.912;8.204;2023-11-19T07:15:17;100078.38;;;1.52;100.00
35023;BME280;21214;44.912;8.204;2023-11-19T07:17:43;100088.22;;;1.64;100.00
35023;BME280;21214;44.912;8.204;2023-11-19T07:20:10;100086.78;;;1.76;100.00
35023;BME280;21214;44.912;8.204;2023-11-19T07:22:38;100074.13;;;1.69;100.00
35023;BME280;21214;44.912;8.204;2023-11-19T07:25:04;100084.91;;;1.78;100.00
35023;BME280;21214;44.912;8.204;2023-11-19T07:27:29;100080.97;;;1.88;100.00
35023;BME280;21214;44.912;8.204;2023-11-19T07:29:58;100077.72;;;2.00;100.00
35023;BME280;21214;44.912;8.204;2023-11-19T07:32:24;100075.91;;;2.02;100.00
35023;BME280;21214;44.912;8.204;2023-11-19T07:34:49;100078.69;;;1.99;100.00
35023;BME280;21214;44.912;8.204;2023-11-19T07:37:15;100073.25;;;2.04;100.00
35023;BME280;21214;44.912;8.204;2023-11-19T07:39:42;100074.38;;;2.16;100.00
35023;BME280;21214;44.912;8.204;2023-11-19T07:42:07;100079.94;;;2.25;100.00
35023;BME280;21214;44.912;8.204;2023-11-19T07:44:34;100074.97;;;2.38;100.00
35023;BME280;21214;44.912;8.204;2023-11-19T07:46:59;100068.66;;;2.42;100.00
35023;BME280;21214;44.912;8.204;2023-11-19T07:49:25;100060.84;;;2.42;100.00
35023;BME280;21214;44.912;8.204;2023-11-19T07:51:51;100073.50;;;2.50;100.00
35023;BME280;21214;44.912;8.204;2023-11-19T07:54:17;100083.59;;;2.56;100.00
35023;BME280;21214;44.912;8.204;2023-11-19T07:56:42;100084.66;;;2.69;100.00
35023;BME280;21214;44.912;8.204;2023-11-19T07:59:07;100082.31;;;2.80;100.00
35023;BME280;21214;44.912;8.204;2023-11-19T08:01:33;100088.06;;;2.86;100.00
35023;BME280;21214;44.912;8.204;2023-11-19T08:03:58;100085.06;;;2.77;100.00
35023;BME280;21214;44.912;8.204;2023-11-19T08:06:24;100077.19;;;2.78;100.00
35023;BME280;21214;44.912;8.204;2023-11-19T08:08:49;100072.56;;;2.83;100.00
35023;BME280;21214;44.912;8.204;2023-11-19T08:11:16;100077.22;;;2.94;100.00
35023;BME280;21214;44.912;8.204;2023-11-19T08:13:41;100075.81;;;3.04;100.00
35023;BME280;21214;44.912;8.204;2023-11-19T08:16:07;100065.56;;;3.17;100.00
35023;BME280;21214;44.912;8.204;2023-11-19T08:18:33;100063.34;;;3.25;100.00
35023;BME280;21214;44.912;8.204;2023-11-19T08:20:59;100062.28;;;3.29;100.00
35023;BME280;21214;44.912;8.204;2023-11-19T08:23:26;100064.19;;;3.41;100.00
35023;BME280;21214;44.912;8.204;2023-11-19T08:25:51;100067.06;;;3.52;100.00
35023;BME280;21214;44.912;8.204;2023-11-19T08:28:17;100066.03;;;3.55;100.00
35023;BME280;21214;44.912;8.204;2023-11-19T08:30:43;100059.53;;;3.62;100.00
35023;BME280;21214;44.912;8.204;2023-11-19T08:33:09;100066.16;;;3.67;100.00
35023;BME280;21214;44.912;8.204;2023-11-19T08:35:34;100059.75;;;3.73;100.00
35023;BME280;21214;44.912;8.204;2023-11-19T08:38:00;100056.53;;;3.84;100.00
35023;BME280;21214;44.912;8.204;2023-11-19T08:40:26;100052.66;;;3.91;100.00
35023;BME280;21214;44.912;8.204;2023-11-19T08:42:51;100059.34;;;3.95;100.00
35023;BME280;21214;44.912;8.204;2023-11-19T08:45:17;100054.63;;;4.01;100.00
35023;BME280;21214;44.912;8.204;2023-11-19T08:47:42;100057.56;;;4.11;100.00
35023;BME280;21214;44.912;8.204;2023-11-19T08:50:08;100038.72;;;4.20;100.00
35023;BME280;21214;44.912;8.204;2023-11-19T08:52:33;100043.78;;;4.23;100.00
35023;BME280;21214;44.912;8.204;2023-11-19T08:54:59;100053.88;;;4.29;100.00
35023;BME280;21214;44.912;8.204;2023-11-19T08:57:26;100063.47;;;4.43;100.00
35023;BME280;21214;44.912;8.204;2023-11-19T08:59:51;100045.88;;;4.46;100.00
35023;BME280;21214;44.912;8.204;2023-11-19T09:02:17;100043.44;;;4.58;100.00
35023;BME280;21214;44.912;8.204;2023-11-19T09:04:43;100049.97;;;4.65;100.00
35023;BME280;21214;44.912;8.204;2023-11-19T09:07:09;100056.13;;;4.78;100.00
35023;BME280;21214;44.912;8.204;2023-11-19T09:09:37;100053.88;;;4.86;100.00
35023;BME280;21214;44.912;8.204;2023-11-19T09:12:03;100039.28;;;4.96;100.00
35023;BME280;21214;44.912;8.204;2023-11-19T09:14:29;100051.69;;;5.07;100.00
35023;BME280;21214;44.912;8.204;2023-11-19T09:16:55;100046.75;;;5.16;100.00
35023;BME280;21214;44.912;8.204;2023-11-19T09:19:21;100044.28;;;5.27;100.00
35023;BME280;21214;44.912;8.204;2023-11-19T09:21:47;100047.25;;;5.35;100.00
35023;BME280;21214;44.912;8.204;2023-11-19T09:24:14;100052.75;;;5.45;100.00
35023;BME280;21214;44.912;8.204;2023-11-19T09:26:40;100048.69;;;5.54;100.00
35023;BME280;21214;44.912;8.204;2023-11-19T09:29:07;100042.09;;;5.61;100.00
35023;BME280;21214;44.912;8.204;2023-11-19T09:31:32;100036.59;;;5.65;100.00
35023;BME280;21214;44.912;8.204;2023-11-19T09:33:58;100044.03;;;5.71;100.00
35023;BME280;21214;44.912;8.204;2023-11-19T09:36:23;100030.44;;;5.79;100.00
35023;BME280;21214;44.912;8.204;2023-11-19T09:38:49;100034.28;;;5.88;100.00
35023;BME280;21214;44.912;8.204;2023-11-19T09:41:14;100046.97;;;5.94;100.00
35023;BME280;21214;44.912;8.204;2023-11-19T09:43:41;100042.25;;;5.99;100.00
35023;BME280;21214;44.912;8.204;2023-11-19T09:46:07;100032.41;;;6.02;100.00
35023;BME280;21214;44.912;8.204;2023-11-19T09:48:36;100038.81;;;6.11;100.00
35023;BME280;21214;44.912;8.204;2023-11-19T09:51:02;100045.22;;;6.20;100.00
35023;BME280;21214;44.912;8.204;2023-11-19T09:53:28;100049.84;;;6.29;100.00
35023;BME280;21214;44.912;8.204;2023-11-19T09:55:53;100045.88;;;6.36;100.00
35023;BME280;21214;44.912;8.204;2023-11-19T09:58:20;100035.91;;;6.41;100.00
35023;BME280;21214;44.912;8.204;2023-11-19T10:00:45;100038.13;;;6.47;100.00
35023;BME280;21214;44.912;8.204;2023-11-19T10:03:12;100034.56;;;6.48;100.00
35023;BME280;21214;44.912;8.204;2023-11-19T10:05:38;100043.78;;;6.53;100.00
35023;BME280;21214;44.912;8.204;2023-11-19T10:08:04;100054.28;;;6.53;100.00
35023;BME280;21214;44.912;8.204;2023-11-19T10:10:30;100047.53;;;6.62;100.00
35023;BME280;21214;44.912;8.204;2023-11-19T10:12:55;100043.75;;;6.66;100.00
35023;BME280;21214;44.912;8.204;2023-11-19T10:15:21;100045.00;;;6.73;100.00
35023;BME280;21214;44.912;8.204;2023-11-19T10:17:47;100039.34;;;6.79;100.00
35023;BME280;21214;44.912;8.204;2023-11-19T10:20:13;100028.66;;;6.82;100.00
35023;BME280;21214;44.912;8.204;2023-11-19T10:22:39;100036.19;;;6.87;100.00
35023;BME280;21214;44.912;8.204;2023-11-19T10:25:05;100028.22;;;6.88;100.00
35023;BME280;21214;44.912;8.204;2023-11-19T10:27:30;100021.78;;;6.92;100.00
35023;BME280;21214;44.912;8.204;2023-11-19T10:29:59;100017.06;;;6.97;100.00
35023;BME280;21214;44.912;8.204;2023-11-19T10:32:24;100009.69;;;7.03;100.00
35023;BME280;21214;44.912;8.204;2023-11-19T10:34:49;100011.97;;;7.07;100.00
35023;BME280;21214;44.912;8.204;2023-11-19T10:37:28;100003.81;;;7.12;100.00
35023;BME280;21214;44.912;8.204;2023-11-19T10:39:57;100009.66;;;7.15;100.00
35023;BME280;21214;44.912;8.204;2023-11-19T10:42:24;100007.66;;;7.19;100.00
35023;BME280;21214;44.912;8.204;2023-11-19T10:44:50;100003.88;;;7.23;100.00
35023;BME280;21214;44.912;8.204;2023-11-19T10:47:15;100025.38;;;7.28;100.00
35023;BME280;21214;44.912;8.204;2023-11-19T10:49:43;100019.88;;;7.31;100.00
35023;BME280;21214;44.912;8.204;2023-11-19T10:52:11;100012.00;;;7.31;100.00
35023;BME280;21214;44.912;8.204;2023-11-19T10:54:37;100003.00;;;7.35;100.00
35023;BME280;21214;44.912;8.204;2023-11-19T10:57:05;99993.94;;;7.39;100.00
35023;BME280;21214;44.912;8.204;2023-11-19T10:59:31;100000.63;;;7.43;100.00
35023;BME280;21214;44.912;8.204;2023-11-19T11:01:57;99987.28;;;7.46;100.00
35023;BME280;21214;44.912;8.204;2023-11-19T11:04:23;99992.28;;;7.49;100.00
35023;BME280;21214;44.912;8.204;2023-11-19T11:06:51;99991.25;;;7.52;100.00
35023;BME280;21214;44.912;8.204;2023-11-19T11:09:16;99991.00;;;7.55;100.00
35023;BME280;21214;44.912;8.204;2023-11-19T11:11:44;99979.44;;;7.57;100.00
35023;BME280;21214;44.912;8.204;2023-11-19T11:14:12;99992.34;;;7.60;100.00
35023;BME280;21214;44.912;8.204;2023-11-19T11:16:39;99985.94;;;7.64;100.00
35023;BME280;21214;44.912;8.204;2023-11-19T11:19:07;99976.88;;;7.68;100.00
35023;BME280;21214;44.912;8.204;2023-11-19T11:21:34;99974.03;;;7.71;100.00
35023;BME280;21214;44.912;8.204;2023-11-19T11:26:50;99971.75;;;7.78;100.00
35023;BME280;21214;44.912;8.204;2023-11-19T11:29:26;99977.28;;;7.86;100.00
35023;BME280;21214;44.912;8.204;2023-11-19T11:39:13;99977.69;;;8.04;100.00
35023;BME280;21214;44.912;8.204;2023-11-19T11:41:40;99971.22;;;8.08;100.00
35023;BME280;21214;44.912;8.204;2023-11-19T11:44:05;99970.06;;;8.12;100.00
35023;BME280;21214;44.912;8.204;2023-11-19T11:48:57;99965.88;;;8.20;100.00
35023;BME280;21214;44.912;8.204;2023-11-19T11:54:07;99951.19;;;8.29;100.00
35023;BME280;21214;44.912;8.204;2023-11-19T11:56:33;99940.34;;;8.34;100.00
35023;BME280;21214;44.912;8.204;2023-11-19T11:58:59;99930.91;;;8.42;100.00
35023;BME280;21214;44.912;8.204;2023-11-19T12:01:25;99933.75;;;8.50;100.00
35023;BME280;21214;44.912;8.204;2023-11-19T12:03:55;99934.97;;;8.57;100.00
35023;BME280;21214;44.912;8.204;2023-11-19T12:06:21;99939.97;;;8.60;100.00
35023;BME280;21214;44.912;8.204;2023-11-19T12:08:46;99933.06;;;8.59;100.00
35023;BME280;21214;44.912;8.204;2023-11-19T12:11:12;99930.06;;;8.64;100.00
35023;BME280;21214;44.912;8.204;2023-11-19T12:13:54;99930.63;;;8.68;100.00
35023;BME280;21214;44.912;8.204;2023-11-19T12:16:24;99920.13;;;8.68;100.00
35023;BME280;21214;44.912;8.204;2023-11-19T12:18:50;99913.91;;;8.69;100.00
35023;BME280;21214;44.912;8.204;2023-11-19T12:21:37;99914.84;;;8.68;100.00
35023;BME280;21214;44.912;8.204;2023-11-19T12:24:02;99942.63;;;8.72;100.00
35023;BME280;21214;44.912;8.204;2023-11-19T12:26:36;99922.25;;;8.74;100.00
35023;BME280;21214;44.912;8.204;2023-11-19T12:29:02;99915.19;;;8.74;100.00
35023;BME280;21214;44.912;8.204;2023-11-19T12:31:31;99929.94;;;8.77;100.00
35023;BME280;21214;44.912;8.204;2023-11-19T12:33:57;99934.19;;;8.78;100.00
35023;BME280;21214;44.912;8.204;2023-11-19T12:36:22;99917.72;;;8.76;100.00
35023;BME280;21214;44.912;8.204;2023-11-19T12:38:48;99927.41;;;8.75;100.00
35023;BME280;21214;44.912;8.204;2023-11-19T12:41:13;99914.13;;;8.77;100.00
35023;BME280;21214;44.912;8.204;2023-11-19T12:43:43;99919.25;;;8.78;100.00
35023;BME280;21214;44.912;8.204;2023-11-19T12:46:19;99899.03;;;8.79;100.00
35023;BME280;21214;44.912;8.204;2023-11-19T12:48:47;99904.31;;;8.79;100.00
35023;BME280;21214;44.912;8.204;2023-11-19T12:51:12;99901.69;;;8.79;100.00
35023;BME280;21214;44.912;8.204;2023-11-19T12:53:51;99894.72;;;8.78;100.00
35023;BME280;21214;44.912;8.204;2023-11-19T12:56:19;99887.81;;;8.77;100.00
35023;BME280;21214;44.912;8.204;2023-11-19T12:58:45;99883.50;;;8.76;100.00
35023;BME280;21214;44.912;8.204;2023-11-19T13:01:15;99887.94;;;8.75;100.00